logo
Search for airport 
image banner adimage banner adimage banner ad
image banner ad

FA0577 - Morning Star Airfield

Located in , South Africa

ICAO - , IATA -

Data provided by Airmate  

General information

Coordinates: S33°45'33" E18°32'54"
Elevation is 226 feet MSL.
 
View others Airports in Western Cape

Operational data

Special qualification required
Current time UTC:
Current local time:
Weather at : - ( 0 km )
METAR: KUNV 232053Z 19003KT 10SM SCT040 26/17 A3010
View NOTAMs / SUP AIP / TFR affecting this airport [VIEW]
Communications frequencies: [VIEW]

Runways:

Airport contact information

Address: South Africa

Satellite view of FA0577